Sioux Arrow — WAG6168 — position and weather

sailwx.info

Track history (hours):
 
Tides and Currents Weather Stations Pressure Air Temp Water Temp Dewpoint Dewpoint Depression Visibility Wind Speed Wind Dir Waves Ship Positions

Sioux Arrow

Owner: HARMON, JACK L, PORT ANGELES, WA. More information available from US FCC via Universal Licensing System and Coast Guard Vessel Documentation Center.

Last reported at 2017-Feb-21 07:33 UTC. Time now 2017-Feb-22 17:20 UTC.
Position N 48°35' W 122°34'.

Type: Port tender. MMSI: 366973370.

Date/timePositionNaut miles runAvg speedWind from/ knotsBaromVisibWave heightAir tempDewpointWater temp
2017-Feb-21 07:33N 48°35' W 122°34'5 4.7
2017-Feb-21 06:33N 48°31' W 122°36'1 0.6
2017-Feb-21 05:33N 48°31' W 122°36'1 0.6
2017-Feb-21 04:33N 48°31' W 122°36'0 0.0
2017-Feb-21 03:33N 48°31' W 122°36'1 1.0
2017-Feb-21 02:33N 48°31' W 122°35'1 1.1
2017-Feb-21 01:33N 48°31' W 122°36'1 1.4
2017-Feb-21 00:33N 48°31' W 122°34'0 0.1
2017-Feb-20 23:34N 48°31' W 122°34'1 1.4
2017-Feb-20 22:34N 48°31' W 122°36'0 0.0
2017-Feb-20 21:34N 48°31' W 122°36'0 0.0
2017-Feb-20 20:34N 48°31' W 122°36'0 0.0
2017-Feb-20 19:33N 48°31' W 122°36'0 0.0
2017-Feb-20 18:33N 48°31' W 122°36'0 0.0
2017-Feb-20 17:34N 48°31' W 122°36'0 0.0
2017-Feb-20 16:33N 48°31' W 122°36'0 0.1
2017-Feb-20 15:34N 48°31' W 122°36'1 0.4
2017-Feb-20 11:33N 48°31' W 122°34'2 1.5
2017-Feb-20 10:33N 48°31' W 122°36'0 0.0
2017-Feb-20 09:33N 48°31' W 122°36'0 0.0
2017-Feb-20 08:33N 48°31' W 122°36'1 1.5
2017-Feb-20 07:33N 48°31' W 122°34'1 1.5
2017-Feb-20 06:33N 48°31' W 122°36'0 0.0
2017-Feb-20 05:33N 48°31' W 122°36'0 0.0
2017-Feb-20 01:09N 48°31' W 122°36'1 0.1
2017-Feb-19 17:33N 48°31' W 122°36'1 0.8
2017-Feb-19 16:33N 48°31' W 122°35'1 1.3
2017-Feb-19 15:33N 48°31' W 122°37'0 0.1
2017-Feb-19 14:33N 48°31' W 122°36'0 0.0
2017-Feb-19 13:33N 48°31' W 122°36'0 0.0
2017-Feb-19 12:33N 48°31' W 122°36'2 1.5
2017-Feb-19 11:33N 48°31' W 122°34'2 1.5
2017-Feb-19 10:33N 48°31' W 122°36'0 0.0
2017-Feb-19 09:33N 48°31' W 122°36'0 0.0
2017-Feb-19 08:33N 48°31' W 122°36'0 0.0
2017-Feb-19 07:33N 48°31' W 122°36'0 0.0
2017-Feb-19 06:33N 48°31' W 122°36'0 0.0
2017-Feb-19 05:33N 48°31' W 122°36'0 0.0
2017-Feb-19 04:33N 48°31' W 122°36'0 0.0
2017-Feb-19 03:33N 48°31' W 122°37'2 1.6
2017-Feb-19 02:33N 48°31' W 122°34'2 1.6
2017-Feb-19 01:33N 48°31' W 122°36'0 0.0
2017-Feb-19 00:33N 48°31' W 122°36'0 0.0
2017-Feb-18 23:33N 48°31' W 122°36'3 3.2
2017-Feb-18 22:33N 48°34' W 122°34'3 3.2
2017-Feb-18 21:34N 48°31' W 122°36'0 0.0
2017-Feb-18 20:34N 48°31' W 122°36'0 0.0
2017-Feb-18 19:34N 48°31' W 122°36'0 0.0
2017-Feb-18 18:34N 48°31' W 122°36'5 4.9
2017-Feb-18 17:33N 48°35' W 122°34'5 0.3
2017-Feb-17 23:33N 48°31' W 122°37'0 0.0
2017-Feb-17 22:33N 48°31' W 122°37'0 0.0
2017-Feb-17 21:33N 48°31' W 122°37'0 0.1
2017-Feb-17 20:33N 48°31' W 122°36'0 0.2
2017-Feb-17 19:33N 48°31' W 122°36'0 0.2
2017-Feb-17 18:33N 48°31' W 122°36'0 0.0
2017-Feb-17 17:33N 48°31' W 122°36'0 0.3
2017-Feb-17 16:33N 48°31' W 122°36'0 0.3
2017-Feb-17 15:33N 48°31' W 122°36'0 0.0
2017-Feb-17 07:33N 48°31' W 122°36'0 0.2
2017-Feb-17 06:33N 48°31' W 122°36'0 0.0
2017-Feb-17 05:33N 48°31' W 122°36'0 0.0
2017-Feb-17 04:33N 48°31' W 122°36'0 0.3
2017-Feb-17 03:33N 48°31' W 122°36'0 0.3
2017-Feb-17 02:33N 48°31' W 122°36'2 1.7
2017-Feb-17 01:33N 48°31' W 122°34'0 0.4
2017-Feb-17 00:33N 48°31' W 122°35'1 1.3
2017-Feb-16 23:33N 48°31' W 122°36'4 4.1
2017-Feb-16 22:33N 48°34' W 122°34'4 4.2
2017-Feb-16 21:34N 48°31' W 122°36'1 0.9
2017-Feb-16 20:33N 48°31' W 122°35'1 0.9
2017-Feb-16 19:34N 48°31' W 122°36'0 0.0
2017-Feb-16 18:34N 48°31' W 122°36'0 0.0
2017-Feb-16 17:34N 48°31' W 122°36'1 0.7
2017-Feb-16 16:33N 48°31' W 122°35'1 0.7
2017-Feb-16 15:33N 48°31' W 122°36'0 0.0
2017-Feb-15 07:14N 48°31' W 122°36'0 0.0
2017-Feb-15 06:33N 48°31' W 122°36'0 0.0
2017-Feb-15 05:33N 48°31' W 122°36'0 0.0
2017-Feb-15 04:33N 48°31' W 122°36'0 0.4
2017-Feb-15 03:34N 48°31' W 122°36'0 0.4
2017-Feb-15 02:33N 48°31' W 122°36'0 0.0
2017-Feb-15 01:33N 48°31' W 122°36'0 0.0
2017-Feb-15 00:33N 48°31' W 122°37'0 0.1
2017-Feb-14 23:33N 48°31' W 122°36'0 0.0
2017-Feb-14 22:33N 48°31' W 122°36'1 1.1
2017-Feb-14 21:33N 48°31' W 122°35'1 0.6
2017-Feb-14 20:33N 48°31' W 122°36'0 0.3
2017-Feb-14 19:33N 48°31' W 122°36'0 0.2
2017-Feb-14 18:33N 48°31' W 122°36'0 0.0
2017-Feb-14 17:33N 48°31' W 122°36'1 1.3
2017-Feb-14 16:33N 48°31' W 122°35'1 1.2
2017-Feb-14 15:33N 48°31' W 122°36'0 0.2
2017-Feb-14 14:33N 48°31' W 122°36'0 0.0
2017-Feb-14 13:33N 48°31' W 122°36'0 0.0
2017-Feb-14 12:33N 48°31' W 122°36'0 0.0
2017-Feb-14 11:33N 48°31' W 122°36'0 0.0
2017-Feb-14 10:34N 48°31' W 122°36'2 0.3
2017-Feb-14 04:19N 48°31' W 122°34'2 0.6
2017-Feb-14 01:22N 48°31' W 122°36'1 0.9
2017-Feb-14 00:33N 48°31' W 122°35'0 0.0
2017-Feb-13 21:33N 48°31' W 122°35'1 0.8
2017-Feb-13 20:33N 48°31' W 122°36'0 0.0
2017-Feb-13 19:33N 48°31' W 122°36'0 0.0
2017-Feb-13 18:33N 48°31' W 122°36'0 0.0
2017-Feb-13 17:33N 48°31' W 122°36'1 1.4
2017-Feb-13 16:33N 48°31' W 122°34'1 1.2
2017-Feb-13 15:33N 48°31' W 122°36'0 0.0
2017-Feb-13 08:32N 48°31' W 122°36'0 0.2
2017-Feb-13 07:29N 48°31' W 122°36'0 0.2
2017-Feb-13 06:33N 48°31' W 122°36'0 0.0
2017-Feb-13 05:33N 48°31' W 122°36'0 0.1
2017-Feb-13 04:33N 48°31' W 122°36'0 0.2
2017-Feb-13 03:33N 48°31' W 122°36'0 0.3
2017-Feb-13 02:33N 48°31' W 122°36'6 5.5
2017-Feb-13 01:33N 48°35' W 122°32'6 5.6
2017-Feb-13 00:33N 48°31' W 122°36'0 0.0
2017-Feb-12 23:33N 48°31' W 122°36'1 1.5
2017-Feb-12 22:33N 48°31' W 122°34'1 1.4
2017-Feb-12 21:33N 48°31' W 122°36'0 0.0
2017-Feb-12 20:33N 48°31' W 122°36'0 0.0
2017-Feb-12 19:33N 48°31' W 122°36'0 0.0
2017-Feb-12 18:33N 48°31' W 122°36'0 0.0
2017-Feb-12 17:33N 48°31' W 122°36'0 0.0
2017-Feb-12 16:33N 48°31' W 122°36'0 0.0
2017-Feb-12 11:30N 48°31' W 122°36'0 0.0
2017-Feb-12 10:33N 48°31' W 122°36'0 0.0
2017-Feb-12 09:33N 48°31' W 122°36'0 0.0
2017-Feb-12 08:33N 48°31' W 122°36'0 0.0
2017-Feb-12 07:33N 48°31' W 122°36'0 0.0
2017-Feb-12 06:33N 48°31' W 122°36'0 0.0
2017-Feb-12 05:33N 48°31' W 122°36'0 0.0
2017-Feb-12 04:33N 48°31' W 122°36'0 0.3
2017-Feb-12 03:33N 48°31' W 122°36'0 0.3
2017-Feb-12 02:33N 48°31' W 122°36'0 0.0
2017-Feb-12 01:33N 48°31' W 122°36'0 0.1
2017-Feb-12 00:33N 48°31' W 122°36'0 0.1
2017-Feb-11 23:33N 48°31' W 122°36'0 0.0
2017-Feb-11 22:33N 48°31' W 122°36'0 0.0
2017-Feb-11 21:33N 48°31' W 122°36'0 0.0
2017-Feb-11 20:33N 48°31' W 122°36'0 0.0
2017-Feb-11 19:33N 48°31' W 122°36'0 0.0
2017-Feb-11 18:33N 48°31' W 122°36'4 3.9
2017-Feb-11 17:33N 48°34' W 122°34'4 3.7
2017-Feb-11 16:33N 48°31' W 122°36'  
Track history (hours):
 
Tides and Currents Weather Stations Pressure Air Temp Water Temp Dewpoint Dewpoint Depression Visibility Wind Speed Wind Dir Waves Ship Positions

Sioux Arrow

Owner: HARMON, JACK L, PORT ANGELES, WA. More information available from US FCC via Universal Licensing System and Coast Guard Vessel Documentation Center.

Last reported at 2017-Feb-21 07:33 UTC. Time now 2017-Feb-22 17:20 UTC.
Position N 48°35' W 122°34'.

Type: Port tender. MMSI: 366973370.

Date/timePositionNaut miles runAvg speedWind from/ knotsBaromVisibWave heightAir tempDewpointWater temp
2017-Feb-21 07:33N 48°35' W 122°34'5 4.7
2017-Feb-21 06:33N 48°31' W 122°36'1 0.6
2017-Feb-21 05:33N 48°31' W 122°36'1 0.6
2017-Feb-21 04:33N 48°31' W 122°36'0 0.0
2017-Feb-21 03:33N 48°31' W 122°36'1 1.0
2017-Feb-21 02:33N 48°31' W 122°35'1 1.1
2017-Feb-21 01:33N 48°31' W 122°36'1 1.4
2017-Feb-21 00:33N 48°31' W 122°34'0 0.1
2017-Feb-20 23:34N 48°31' W 122°34'1 1.4
2017-Feb-20 22:34N 48°31' W 122°36'0 0.0
2017-Feb-20 21:34N 48°31' W 122°36'0 0.0
2017-Feb-20 20:34N 48°31' W 122°36'0 0.0
2017-Feb-20 19:33N 48°31' W 122°36'0 0.0
2017-Feb-20 18:33N 48°31' W 122°36'0 0.0
2017-Feb-20 17:34N 48°31' W 122°36'0 0.0
2017-Feb-20 16:33N 48°31' W 122°36'0 0.1
2017-Feb-20 15:34N 48°31' W 122°36'1 0.4
2017-Feb-20 11:33N 48°31' W 122°34'2 1.5
2017-Feb-20 10:33N 48°31' W 122°36'0 0.0
2017-Feb-20 09:33N 48°31' W 122°36'0 0.0
2017-Feb-20 08:33N 48°31' W 122°36'1 1.5
2017-Feb-20 07:33N 48°31' W 122°34'1 1.5
2017-Feb-20 06:33N 48°31' W 122°36'0 0.0
2017-Feb-20 05:33N 48°31' W 122°36'0 0.0
2017-Feb-20 01:09N 48°31' W 122°36'1 0.1
2017-Feb-19 17:33N 48°31' W 122°36'1 0.8
2017-Feb-19 16:33N 48°31' W 122°35'1 1.3
2017-Feb-19 15:33N 48°31' W 122°37'0 0.1
2017-Feb-19 14:33N 48°31' W 122°36'0 0.0
2017-Feb-19 13:33N 48°31' W 122°36'0 0.0
2017-Feb-19 12:33N 48°31' W 122°36'2 1.5
2017-Feb-19 11:33N 48°31' W 122°34'2 1.5
2017-Feb-19 10:33N 48°31' W 122°36'0 0.0
2017-Feb-19 09:33N 48°31' W 122°36'0 0.0
2017-Feb-19 08:33N 48°31' W 122°36'0 0.0
2017-Feb-19 07:33N 48°31' W 122°36'0 0.0
2017-Feb-19 06:33N 48°31' W 122°36'0 0.0
2017-Feb-19 05:33N 48°31' W 122°36'0 0.0
2017-Feb-19 04:33N 48°31' W 122°36'0 0.0
2017-Feb-19 03:33N 48°31' W 122°37'2 1.6
2017-Feb-19 02:33N 48°31' W 122°34'2 1.6
2017-Feb-19 01:33N 48°31' W 122°36'0 0.0
2017-Feb-19 00:33N 48°31' W 122°36'0 0.0
2017-Feb-18 23:33N 48°31' W 122°36'3 3.2
2017-Feb-18 22:33N 48°34' W 122°34'3 3.2
2017-Feb-18 21:34N 48°31' W 122°36'0 0.0
2017-Feb-18 20:34N 48°31' W 122°36'0 0.0
2017-Feb-18 19:34N 48°31' W 122°36'0 0.0
2017-Feb-18 18:34N 48°31' W 122°36'5 4.9
2017-Feb-18 17:33N 48°35' W 122°34'5 0.3
2017-Feb-17 23:33N 48°31' W 122°37'0 0.0
2017-Feb-17 22:33N 48°31' W 122°37'0 0.0
2017-Feb-17 21:33N 48°31' W 122°37'0 0.1
2017-Feb-17 20:33N 48°31' W 122°36'0 0.2
2017-Feb-17 19:33N 48°31' W 122°36'0 0.2
2017-Feb-17 18:33N 48°31' W 122°36'0 0.0
2017-Feb-17 17:33N 48°31' W 122°36'0 0.3
2017-Feb-17 16:33N 48°31' W 122°36'0 0.3
2017-Feb-17 15:33N 48°31' W 122°36'0 0.0
2017-Feb-17 07:33N 48°31' W 122°36'0 0.2
2017-Feb-17 06:33N 48°31' W 122°36'0 0.0
2017-Feb-17 05:33N 48°31' W 122°36'0 0.0
2017-Feb-17 04:33N 48°31' W 122°36'0 0.3
2017-Feb-17 03:33N 48°31' W 122°36'0 0.3
2017-Feb-17 02:33N 48°31' W 122°36'2 1.7
2017-Feb-17 01:33N 48°31' W 122°34'0 0.4
2017-Feb-17 00:33N 48°31' W 122°35'1 1.3
2017-Feb-16 23:33N 48°31' W 122°36'4 4.1
2017-Feb-16 22:33N 48°34' W 122°34'4 4.2
2017-Feb-16 21:34N 48°31' W 122°36'1 0.9
2017-Feb-16 20:33N 48°31' W 122°35'1 0.9
2017-Feb-16 19:34N 48°31' W 122°36'0 0.0
2017-Feb-16 18:34N 48°31' W 122°36'0 0.0
2017-Feb-16 17:34N 48°31' W 122°36'1 0.7
2017-Feb-16 16:33N 48°31' W 122°35'1 0.7
2017-Feb-16 15:33N 48°31' W 122°36'0 0.0
2017-Feb-15 07:14N 48°31' W 122°36'0 0.0
2017-Feb-15 06:33N 48°31' W 122°36'0 0.0
2017-Feb-15 05:33N 48°31' W 122°36'0 0.0
2017-Feb-15 04:33N 48°31' W 122°36'0 0.4
2017-Feb-15 03:34N 48°31' W 122°36'0 0.4
2017-Feb-15 02:33N 48°31' W 122°36'0 0.0
2017-Feb-15 01:33N 48°31' W 122°36'0 0.0
2017-Feb-15 00:33N 48°31' W 122°37'0 0.1
2017-Feb-14 23:33N 48°31' W 122°36'0 0.0
2017-Feb-14 22:33N 48°31' W 122°36'1 1.1
2017-Feb-14 21:33N 48°31' W 122°35'1 0.6
2017-Feb-14 20:33N 48°31' W 122°36'0 0.3
2017-Feb-14 19:33N 48°31' W 122°36'0 0.2
2017-Feb-14 18:33N 48°31' W 122°36'0 0.0
2017-Feb-14 17:33N 48°31' W 122°36'1 1.3
2017-Feb-14 16:33N 48°31' W 122°35'1 1.2
2017-Feb-14 15:33N 48°31' W 122°36'0 0.2
2017-Feb-14 14:33N 48°31' W 122°36'0 0.0
2017-Feb-14 13:33N 48°31' W 122°36'0 0.0
2017-Feb-14 12:33N 48°31' W 122°36'0 0.0
2017-Feb-14 11:33N 48°31' W 122°36'0 0.0
2017-Feb-14 10:34N 48°31' W 122°36'2 0.3
2017-Feb-14 04:19N 48°31' W 122°34'2 0.6
2017-Feb-14 01:22N 48°31' W 122°36'1 0.9
2017-Feb-14 00:33N 48°31' W 122°35'0 0.0
2017-Feb-13 21:33N 48°31' W 122°35'1 0.8
2017-Feb-13 20:33N 48°31' W 122°36'0 0.0
2017-Feb-13 19:33N 48°31' W 122°36'0 0.0
2017-Feb-13 18:33N 48°31' W 122°36'0 0.0
2017-Feb-13 17:33N 48°31' W 122°36'1 1.4
2017-Feb-13 16:33N 48°31' W 122°34'1 1.2
2017-Feb-13 15:33N 48°31' W 122°36'0 0.0
2017-Feb-13 08:32N 48°31' W 122°36'0 0.2
2017-Feb-13 07:29N 48°31' W 122°36'0 0.2
2017-Feb-13 06:33N 48°31' W 122°36'0 0.0
2017-Feb-13 05:33N 48°31' W 122°36'0 0.1
2017-Feb-13 04:33N 48°31' W 122°36'0 0.2
2017-Feb-13 03:33N 48°31' W 122°36'0 0.3
2017-Feb-13 02:33N 48°31' W 122°36'6 5.5
2017-Feb-13 01:33N 48°35' W 122°32'6 5.6
2017-Feb-13 00:33N 48°31' W 122°36'0 0.0
2017-Feb-12 23:33N 48°31' W 122°36'1 1.5
2017-Feb-12 22:33N 48°31' W 122°34'1 1.4
2017-Feb-12 21:33N 48°31' W 122°36'0 0.0
2017-Feb-12 20:33N 48°31' W 122°36'0 0.0
2017-Feb-12 19:33N 48°31' W 122°36'0 0.0
2017-Feb-12 18:33N 48°31' W 122°36'0 0.0
2017-Feb-12 17:33N 48°31' W 122°36'0 0.0
2017-Feb-12 16:33N 48°31' W 122°36'0 0.0
2017-Feb-12 11:30N 48°31' W 122°36'0 0.0
2017-Feb-12 10:33N 48°31' W 122°36'0 0.0
2017-Feb-12 09:33N 48°31' W 122°36'0 0.0
2017-Feb-12 08:33N 48°31' W 122°36'0 0.0
2017-Feb-12 07:33N 48°31' W 122°36'0 0.0
2017-Feb-12 06:33N 48°31' W 122°36'0 0.0
2017-Feb-12 05:33N 48°31' W 122°36'0 0.0
2017-Feb-12 04:33N 48°31' W 122°36'0 0.3
2017-Feb-12 03:33N 48°31' W 122°36'0 0.3
2017-Feb-12 02:33N 48°31' W 122°36'0 0.0
2017-Feb-12 01:33N 48°31' W 122°36'0 0.1
2017-Feb-12 00:33N 48°31' W 122°36'0 0.1
2017-Feb-11 23:33N 48°31' W 122°36'0 0.0
2017-Feb-11 22:33N 48°31' W 122°36'0 0.0
2017-Feb-11 21:33N 48°31' W 122°36'0 0.0
2017-Feb-11 20:33N 48°31' W 122°36'0 0.0
2017-Feb-11 19:33N 48°31' W 122°36'0 0.0
2017-Feb-11 18:33N 48°31' W 122°36'4 3.9
2017-Feb-11 17:33N 48°34' W 122°34'4 3.7
2017-Feb-11 16:33N 48°31' W 122°36'  

Dump ship's entire track history